ADDS METAR Data INFO
IDs: Format: Raw Decoded Include TAF

Data at: 0754 UTC 17 Oct 2017

KSEZ 170735Z AUTO 03010KT 10SM CLR 18/M04 A3029 RMK AO2
KSEZ 170715Z AUTO 03011KT 10SM CLR 18/M05 A3029 RMK AO2
KSEZ 170655Z AUTO 03012KT 10SM CLR 19/M05 A3029 RMK AO2
KSEZ 170635Z AUTO 03011KT 10SM CLR 19/M05 A3028 RMK AO2
KSEZ 170615Z AUTO 03013G17KT 10SM CLR 19/M05 A3029 RMK AO2
KSEZ 170555Z AUTO 03011KT 10SM CLR 20/M05 A3029 RMK AO2
KSEZ 170535Z AUTO 03011KT 10SM CLR 20/M06 A3029 RMK AO2
KSEZ 170515Z AUTO 03010KT 10SM CLR 20/M06 A3029 RMK AO2
KSEZ 170455Z AUTO 04009KT 10SM CLR 21/M06 A3029 RMK AO2
KSEZ 170435Z AUTO 04008KT 10SM CLR 21/M06 A3028 RMK AO2
KSEZ 170355Z AUTO 04011KT 10SM CLR 22/M06 A3027 RMK AO2
KSEZ 170335Z AUTO 04012KT 10SM CLR 22/M06 A3026 RMK AO2
KSEZ 170315Z AUTO 03011KT 10SM CLR 22/M06 A3026 RMK AO2
KSEZ 170255Z AUTO 04010KT 10SM CLR 22/M05 A3026 RMK AO2
KSEZ 170235Z AUTO 04010KT 10SM CLR 23/M05 A3026 RMK AO2
KSEZ 170210Z AUTO 04010KT 10SM CLR 23/M03 A3025 RMK AO2
KSEZ 170155Z AUTO 04008KT 10SM CLR 24/M02 A3025 RMK AO2
KSEZ 170135Z AUTO 00000KT 10SM CLR 25/M03 A3025 RMK AO2
KSEZ 170115Z AUTO 00000KT 10SM CLR 25/M03 A3025 RMK AO2
KSEZ 170055Z AUTO 00000KT 10SM CLR 25/M03 A3025 RMK AO2
KSEZ 170035Z AUTO 00000KT 10SM CLR 26/M02 A3025 RMK AO2
KSEZ 170015Z AUTO 23004KT 10SM CLR 27/M02 A3025 RMK AO2
KSEZ 162355Z AUTO 23005KT 10SM CLR 27/M02 A3025 RMK AO2
KSEZ 162335Z AUTO 24004KT 10SM CLR 28/M02 A3025 RMK AO2
KSEZ 162315Z AUTO 29006KT 10SM CLR 28/M01 A3026 RMK AO2
KSEZ 162255Z AUTO 26006KT 10SM CLR 27/M02 A3026 RMK AO2
KSEZ 162235Z AUTO 00000KT 10SM CLR 28/M02 A3026 RMK AO2
KSEZ 162215Z AUTO 17003KT 10SM CLR 28/M02 A3026 RMK AO2
KSEZ 162155Z AUTO 19005KT 10SM CLR 30/M02 A3026 RMK AO2
KSEZ 162135Z AUTO 25004KT 10SM CLR 29/M02 A3027 RMK AO2
KSEZ 162115Z AUTO 18006KT 10SM CLR 28/M02 A3027 RMK AO2
KSEZ 162055Z AUTO 21003KT 10SM CLR 28/M03 A3028 RMK AO2
KSEZ 162035Z AUTO 19006KT 10SM CLR 30/M03 A3029 RMK AO2
KSEZ 162015Z AUTO 14004KT 10SM CLR 28/M03 A3030 RMK AO2
KSEZ 161955Z AUTO 15006KT 10SM CLR 28/M03 A3030 RMK AO2
KSEZ 161935Z AUTO 14005KT 10SM CLR 28/M04 A3032 RMK AO2
KSEZ 161915Z AUTO 16003KT 10SM CLR 27/M04 A3033 RMK AO2
KSEZ 161855Z AUTO 16005KT 10SM CLR 27/M04 A3034 RMK AO2
KSEZ 161835Z AUTO 00000KT 10SM CLR 26/M05 A3035 RMK AO2
KSEZ 161815Z AUTO 00000KT 10SM CLR 26/M05 A3036 RMK AO2
KSEZ 161755Z AUTO 16005KT 10SM CLR 26/M05 A3037 RMK AO2
KSEZ 161735Z AUTO 12003KT 10SM CLR 25/M06 A3037 RMK AO2
KSEZ 161715Z AUTO 15003KT 10SM CLR 24/M06 A3037 RMK AO2
KSEZ 161655Z AUTO 15003KT 10SM CLR 23/M06 A3038 RMK AO2
KSEZ 161635Z AUTO 14003KT 10SM CLR 22/M07 A3038 RMK AO2
KSEZ 161615Z AUTO 10004KT 10SM CLR 21/M08 A3038 RMK AO2
KSEZ 161555Z AUTO 09005KT 10SM CLR 21/M08 A3039 RMK AO2
KSEZ 161535Z AUTO 07009KT 10SM CLR 20/M09 A3038 RMK AO2
KSEZ 161515Z AUTO 03007KT 10SM CLR 18/M09 A3038 RMK AO2
KSEZ 161455Z AUTO 04010KT 10SM CLR 17/M10 A3038 RMK AO2
KSEZ 161435Z AUTO 03012KT 10SM CLR 15/M11 A3037 RMK AO2
KSEZ 161415Z AUTO 03014G18KT 10SM CLR 15/M11 A3036 RMK AO2
KSEZ 161355Z AUTO 03012KT 10SM CLR 15/M11 A3036 RMK AO2
KSEZ 161335Z AUTO 03013KT 10SM CLR 15/M11 A3036 RMK AO2
KSEZ 161315Z AUTO 03013KT 10SM CLR 15/M12 A3036 RMK AO2
KSEZ 161255Z AUTO 03014G19KT 10SM CLR 15/M12 A3035 RMK AO2
KSEZ 161235Z AUTO 03013KT 10SM CLR 15/M12 A3035 RMK AO2
KSEZ 161215Z AUTO 03011KT 10SM CLR 15/M12 A3035 RMK AO2
KSEZ 161155Z AUTO 04012KT 10SM CLR 16/M12 A3034 RMK AO2
KSEZ 161135Z AUTO 03011KT 10SM CLR 16/M12 A3034 RMK AO2
KSEZ 161115Z AUTO 04012KT 10SM CLR 16/M13 A3034 RMK AO2
KSEZ 161055Z AUTO 04012KT 10SM CLR 16/M13 A3034 RMK AO2
KSEZ 161035Z AUTO 04011KT 10SM CLR 16/M13 A3034 RMK AO2
KSEZ 161015Z AUTO 04012KT 10SM CLR 16/M13 A3034 RMK AO2
KSEZ 160955Z AUTO 04011KT 10SM CLR 16/M13 A3034 RMK AO2
KSEZ 160935Z AUTO 04011KT 10SM CLR 17/M13 A3034 RMK AO2
KSEZ 160915Z AUTO 03011G17KT 10SM CLR 17/M13 A3034 RMK AO2
KSEZ 160855Z AUTO 03012KT 10SM CLR 17/M13 A3034 RMK AO2
KSEZ 160835Z AUTO 04012KT 10SM CLR 17/M13 A3034 RMK AO2
KSEZ 160815Z AUTO 04011KT 10SM CLR 18/M14 A3035 RMK AO2
KSEZ 160755Z AUTO 04012KT 10SM CLR 18/M14 A3034 RMK AO2
KSEZ 160735Z AUTO 04013KT 10SM CLR 18/M14 A3034 RMK AO2
KSEZ 160715Z AUTO 04011KT 10SM CLR 18/M14 A3035 RMK AO2
KSEZ 160655Z AUTO 04013KT 10SM CLR 18/M14 A3035 RMK AO2
KSEZ 160635Z AUTO 04011G16KT 10SM CLR 18/M13 A3036 RMK AO2
KSEZ 160615Z AUTO 04011KT 10SM CLR 18/M13 A3036 RMK AO2
KSEZ 160555Z AUTO 04012KT 10SM CLR 18/M14 A3036 RMK AO2
KSEZ 160535Z AUTO 04011KT 10SM CLR 18/M14 A3036 RMK AO2
KSEZ 160515Z AUTO 04013KT 10SM CLR 18/M14 A3036 RMK AO2
KSEZ 160455Z AUTO 03013KT 10SM CLR 18/M13 A3035 RMK AO2
KSEZ 160435Z AUTO 03016G20KT 10SM CLR 18/M13 A3034 RMK AO2
KSEZ 160415Z AUTO 03015G21KT 10SM CLR 18/M13 A3034 RMK AO2
KSEZ 160355Z AUTO 04015G22KT 10SM CLR 18/M13 A3034 RMK AO2
KSEZ 160330Z AUTO 03017G22KT 10SM CLR 18/M13 A3033 RMK AO2
KSEZ 160315Z AUTO 04015G23KT 10SM CLR 18/M14 A3033 RMK AO2
KSEZ 160255Z AUTO 04015G21KT 10SM CLR 19/M14 A3033 RMK AO2
KSEZ 160235Z AUTO 04016G21KT 10SM CLR 20/M14 A3032 RMK AO2
KSEZ 160215Z AUTO 04014G21KT 10SM CLR 20/M14 A3032 RMK AO2
KSEZ 160155Z AUTO 05014G20KT 10SM CLR 20/M14 A3032 RMK AO2
KSEZ 160135Z AUTO 05013G17KT 10SM CLR 21/M13 A3030 RMK AO2
KSEZ 160115Z AUTO 04013KT 10SM CLR 22/M13 A3030 RMK AO2
KSEZ 160055Z AUTO 05010G17KT 10SM CLR 23/M12 A3029 RMK AO2
KSEZ 160035Z AUTO 04011KT 10SM CLR 25/M12 A3029 RMK AO2
KSEZ 160015Z AUTO 00000KT 10SM CLR 26/M09 A3029 RMK AO2
KSEZ 152355Z AUTO 00000KT 10SM CLR 27/M10 A3029 RMK AO2
KSEZ 152335Z AUTO 20003KT 10SM CLR 28/M10 A3028 RMK AO2
KSEZ 152315Z AUTO 00000KT 10SM CLR 28/M10 A3028 RMK AO2
KSEZ 152255Z AUTO 20005KT 10SM CLR 28/M09 A3029 RMK AO2
KSEZ 152235Z AUTO 00000KT 10SM CLR 28/M10 A3029 RMK AO2
KSEZ 152215Z AUTO 00000KT 10SM CLR 28/M10 A3029 RMK AO2
KSEZ 152155Z AUTO 19003KT 10SM CLR 28/M10 A3030 RMK AO2
KSEZ 152135Z AUTO 00000KT 10SM CLR 28/M11 A3030 RMK AO2
KSEZ 152115Z AUTO 18003KT 10SM CLR 28/M11 A3030 RMK AO2
KSEZ 152055Z AUTO 00000KT 10SM CLR 27/M12 A3031 RMK AO2
KSEZ 152035Z AUTO 22003KT 10SM CLR 28/M11 A3032 RMK AO2
KSEZ 152015Z AUTO 20003KT 10SM CLR 28/M12 A3032 RMK AO2
KSEZ 151955Z AUTO 11004KT 10SM CLR 26/M12 A3033 RMK AO2